Flight Track Log - Related Links

Times and Time Zones

All times are in EDT time to prevent confusion due to time zone crossing. See the N589H flight status page for this flight to view local times or setup timezone preferences in your user account.

Time Position Orientation Groundspeed Altitude Reporting Facility
EDT Latitude Longitude Course Direction KTS MPH feet Rate Location/Type
Tue 10:29:37 AM 27.9167 -82.6833 270° West 148 170 500  Level Tampa TRACON
Tue 10:30:50 AM 27.9167 -82.7500 270° West 183 211 2,700 1,714 Climbing Tampa TRACON
Tue 10:31:50 AM 27.8667 -82.7333 164° South 233 268 4,300 2,100 Climbing Tampa TRACON
Tue 10:32:50 AM 27.8000 -82.7167 168° South 230 265 6,900 2,299 Climbing Tampa TRACON
Tue 10:34:24 AM 27.7175 -82.6681 152° Southeast 244 281 10,200 1,846 Climbing Miami Center
Tue 10:35:26 AM 27.6708 -82.6050 130° Southeast 264 304 11,700 1,500 Climbing Miami Center
Tue 10:36:28 AM 27.6108 -82.5439 138° Southeast 287 330 13,300 1,500 Climbing Miami Center
Tue 10:37:30 AM 27.5464 -82.4853 141° Southeast 297 342 14,800 1,742 Climbing Miami Center
Tue 10:38:32 AM 27.4686 -82.4131 141° Southeast 305 351 16,900 1,065 Climbing Miami Center
Tue 10:39:34 AM 27.4000 -82.3478 140° Southeast 327 376 17,000 48 Climbing Miami Center
Tue 10:40:37 AM 27.3228 -82.2767 141° Southeast 356 410 17,000  Level Miami Center
Tue 10:41:39 AM 27.2458 -82.2058 141° Southeast 359 413 17,000  Level Miami Center
Tue 10:42:41 AM 27.1697 -82.1350 140° Southeast 360 414 17,000  Level Miami Center
Tue 10:43:43 AM 27.0778 -82.0500 141° Southeast 359 413 17,000  Level Miami Center
Tue 10:44:45 AM 26.9975 -81.9761 141° Southeast 360 414 17,000  Level Miami Center
Tue 10:45:48 AM 26.9144 -81.9000 141° Southeast 359 413 17,000  Level Miami Center
Tue 10:46:50 AM 26.8389 -81.8297 140° Southeast 358 412 17,000  Level Miami Center
Tue 10:47:52 AM 26.7544 -81.7517 140° Southeast 362 417 17,000  Level Miami Center
Tue 10:48:55 AM 26.6772 -81.6811 141° Southeast 362 417 17,000  Level Miami Center
Tue 10:49:57 AM 26.5947 -81.6056 141° Southeast 358 412 17,000 -387 Level Miami Center
Tue 10:50:59 AM 26.5192 -81.5369 141° Southeast 355 409 16,200 -1,452 Descending Miami Center
Tue 10:52:01 AM 26.4414 -81.4658 141° Southeast 341 392 14,000 -2,016 Descending Miami Center
Tue 10:53:04 AM 26.3697 -81.4031 142° Southeast 333 383 12,000 -1,440 Descending Miami Center
Tue 10:54:06 AM 26.2978 -81.3369 141° Southeast 311 358 11,000 -772 Descending Miami Center
Tue 10:54:45 AM 26.2603 -81.3044 142° Southeast 280 322 10,700 -774 Descending Miami Center
Tue 10:55:08 AM 26.2364 -81.2808 138° Southeast 290 334 10,200 -1,116 Descending Miami Center
Tue 10:55:28 AM 26.2153 -81.2611 140° Southeast 285 328 9,900 -968 Descending Miami Center
Tue 10:56:10 AM 26.1689 -81.2192 141° Southeast 294 338 9,200 -885 Descending Miami Center
Tue 10:56:29 AM 26.1464 -81.1972 139° Southeast 296 341 9,000 -190 Descending Miami Center
Tue 10:57:13 AM 26.1006 -81.1583 143° Southeast 293 337 9,000  Level Miami Center
Tue 10:57:30 AM 26.0831 -81.1408 138° Southeast 293 337 9,000  Level Miami Center
Tue 10:58:15 AM 26.0372 -81.0994 141° Southeast 296 341 9,000  Level Miami Center
Tue 10:58:31 AM 26.0181 -81.0819 141° Southeast 299 344 9,000  Level Miami Center
Tue 10:59:17 AM 25.9656 -81.0336 140° Southeast 301 346 9,000  Level Miami Center
Tue 10:59:33 AM 25.9531 -81.0231 143° Southeast 305 351 9,000 -476 Level Miami Center
Tue 11:00:20 AM 25.9044 -80.9769 140° Southeast 302 348 8,500 -818 Descending Miami Center
Tue 11:00:39 AM 25.8867 -80.9506 127° Southeast 296 341 8,100 -484 Descending Miami Center
Tue 11:01:22 AM 25.8694 -80.8936 109° East 307 353 8,000 -97 Descending Miami Center
Tue 11:01:41 AM 25.8550 -80.8622 117° Southeast 306 352 8,000  Level Miami Center
Tue 11:02:24 AM 25.8561 -80.7989 89° East 319 367 8,000  Level Miami Center
Tue 11:02:42 AM 25.8597 -80.7606 84° East 337 388 8,000  Level Miami Center
Tue 11:03:26 AM 25.8714 -80.6986 78° East 330 380 8,000  Level Miami Center
Tue 11:03:43 AM 25.8794 -80.6511 79° East 335 386 8,000  Level Miami Center
Tue 11:04:29 AM 25.8839 -80.5967 85° East 330 380 8,000  Level Miami Center
Tue 11:04:44 AM 25.8839 -80.5519 90° East 327 376 8,000  Level Miami Center
Tue 11:05:31 AM 25.8875 -80.4747 87° East 327 376 8,000  Level Miami Center
Tue 11:05:51 AM 25.8889 -80.4411 87° East 328 377 8,000  Level Miami Center
Tue 11:06:33 AM 25.8942 -80.3719 85° East 328 377 8,000  Level Miami Center
Tue 11:06:52 AM 25.8953 -80.3397 88° East 329 379 8,000 -774 Level Miami Center
Tue 11:07:35 AM 25.8997 -80.2714 86° East 328 377 7,200 -1,742 Descending Miami Center
Tue 11:07:54 AM 25.9000 -80.2311 90° East 318 366 6,200 -2,476 Descending Miami Center
Tue 11:08:38 AM 25.9031 -80.1758 86° East 318 366 4,600 -2,066 Descending Miami Center
Tue 11:08:55 AM 25.9056 -80.1458 85° East 258 297 4,100 -1,258 Descending Miami Center
Tue 11:09:40 AM 25.9019 -80.1078 96° East 250 288 3,300 -1,475 Descending Miami Center
Tue 11:09:56 AM 25.8808 -80.1025 167° South 173 199 2,600 -1,258 Descending Miami Center
Tue 11:10:42 AM 25.8497 -80.1050 184° South 212 244 2,000 -655 Descending Miami Center
Tue 11:10:51 AM 25.8342 -80.1128 204° Southwest 173 199 2,000 -190 Level Miami Center
Tue 11:11:45 AM 25.8086 -80.1492 232° Southwest 188 216 1,800 -269 Descending Miami Center
Tue 11:11:58 AM 25.8083 -80.1594 268° West 168 193 1,700 -405 Descending Miami Center
Tue 11:12:59 AM 25.8053 -80.2078 266° West 134 154 1,300 -486 Descending Miami Center
Tue 11:13:49 AM 25.8042 -80.2342 267° West 145 167 800 -677 Descending Miami Center
Tue 11:14:01 AM 25.8050 -80.2447 275° West 116 133 600 -581 Descending Miami Center
Tue 11:14:51 AM 25.8033 -80.2744 266° West 132 152 200 -480 Descending Miami Center

Login

Don't have an account? Register now (free) for customized features, flight alerts, and more!